.
WxDataArchive / Data Records for 2013-01-29
2013-01-28 January 2013 2013-01-30

Data Records for Tuesday, 29 January 2013

Time	Temp	Chill	HIndex	Humid	Dewpt	 Wind 	HiWind	WindDir	Rain 	Barom 
-----	----	-----	------	-----	-----	------	------	-------	-----	----- 
00:00	45.4	45.4	45.4	96	44.3	0	1	248	0.00	29.971 
00:05	45.5	45.5	45.5	96	44.4	0	1	248	0.00	29.971 
00:10	45.5	45.5	45.5	96	44.4	0	1	248	0.00	29.971 
00:15	45.4	45.4	45.4	96	44.3	0	0	---	0.00	29.969 
00:20	45.2	45.2	45.2	96	44.1	0	1	248	0.00	29.969 
00:25	45.2	45.2	45.2	96	44.1	0	0	---	0.00	29.969 
00:30	45.1	45.1	45.1	96	44.0	0	0	---	0.00	29.966 
00:35	44.8	44.8	44.8	96	43.7	0	0	---	0.00	29.966 
00:40	44.5	44.5	44.5	96	43.4	0	0	---	0.00	29.966 
00:45	44.1	44.1	44.1	96	43.0	0	1	248	0.00	29.959 
00:50	43.8	43.8	43.8	96	42.7	0	0	---	0.00	29.959 
00:55	43.8	43.8	43.8	96	42.7	0	1	248	0.00	29.959 
01:00	43.6	43.6	43.6	96	42.5	0	0	---	0.00	29.956 
01:05	43.6	43.6	43.6	96	42.5	0	0	---	0.00	29.956 
01:10	43.5	43.5	43.5	96	42.4	0	0	---	0.00	29.956 
01:15	43.6	43.6	43.6	96	42.5	0	1	248	0.00	29.952 
01:20	43.5	43.5	43.5	96	42.4	0	0	---	0.00	29.952 
01:25	43.5	43.5	43.5	96	42.4	0	0	---	0.00	29.952 
01:30	43.3	43.3	43.3	96	42.2	0	0	---	0.00	29.942 
01:35	43.5	43.5	43.5	96	42.4	0	1	248	0.00	29.942 
01:40	43.5	43.5	43.5	96	42.4	0	0	---	0.00	29.942 
01:45	43.5	43.5	43.5	96	42.4	0	0	---	0.00	29.936 
01:50	43.3	43.3	43.3	96	42.2	0	0	---	0.00	29.936 
01:55	43.1	43.1	43.1	96	42.0	0	0	---	0.00	29.936 
02:00	43.1	43.1	43.1	96	42.0	0	1	248	0.00	29.934 
02:05	42.9	42.9	42.9	96	41.8	0	1	248	0.00	29.934 
02:10	43.1	43.1	43.1	96	42.0	0	1	248	0.00	29.934 
02:15	43.3	43.3	43.3	97	42.5	1	2	248	0.00	29.925 
02:20	43.6	43.6	43.6	97	42.8	1	2	248	0.00	29.925 
02:25	43.9	43.9	43.9	97	43.1	0	2	248	0.00	29.925 
02:30	44.1	44.1	44.1	97	43.3	0	3	248	0.00	29.920 
02:35	44.2	44.2	44.2	97	43.4	0	1	248	0.00	29.920 
02:40	44.2	44.2	44.2	97	43.4	0	2	248	0.00	29.920 
02:45	44.1	44.1	44.1	97	43.3	0	2	248	0.00	29.919 
02:50	44.1	44.1	44.1	97	43.3	0	0	---	0.00	29.919 
02:55	43.8	43.8	43.8	97	43.0	0	1	248	0.00	29.919 
03:00	43.8	43.8	43.8	97	43.0	0	1	248	0.00	29.905 
03:05	43.8	43.8	43.8	97	43.0	0	0	---	0.00	29.905 
03:10	43.8	43.8	43.8	97	43.0	0	1	248	0.00	29.905 
03:15	44.1	44.1	44.1	97	43.3	0	1	248	0.00	29.890 
03:20	44.9	44.9	44.9	97	44.1	0	1	248	0.00	29.890 
03:25	45.8	45.8	45.8	97	45.0	0	1	248	0.00	29.890 
03:30	47.0	47.0	47.0	97	46.2	0	1	248	0.00	29.882 
03:35	48.0	48.0	48.0	98	47.5	0	2	248	0.00	29.882 
03:40	48.9	48.9	48.9	98	48.4	0	3	248	0.00	29.882 
03:45	49.6	49.6	49.6	98	49.1	0	1	248	0.00	29.873 
03:50	50.2	50.2	50.2	98	49.7	1	5	248	0.00	29.873 
03:55	50.7	50.7	50.7	98	50.2	1	2	248	0.00	29.873 
04:00	51.0	51.0	51.0	98	50.5	1	4	0	0.00	29.868 
04:05	51.4	51.4	51.4	98	50.9	2	9	248	0.00	29.868 
04:10	51.6	51.6	51.6	98	51.1	1	6	248	0.00	29.868 
04:15	51.7	51.7	51.7	98	51.2	1	3	248	0.00	29.866 
04:20	51.9	51.9	51.9	98	51.4	1	4	248	0.00	29.866 
04:25	52.0	52.0	52.0	98	51.5	1	4	248	0.00	29.866 
04:30	52.0	52.0	52.0	98	51.5	0	2	248	0.00	29.862 
04:35	52.2	52.2	52.2	98	51.7	0	2	248	0.00	29.862 
04:40	52.2	52.2	52.2	98	51.7	0	2	248	0.00	29.862 
04:45	52.2	52.2	52.2	98	51.7	0	3	248	0.00	29.856 
04:50	52.3	52.3	52.3	98	51.8	0	3	248	0.00	29.856 
04:55	52.5	52.5	52.5	98	52.0	1	4	248	0.00	29.856 
05:00	52.5	52.5	52.5	98	52.0	1	5	248	0.00	29.845 
05:05	52.6	52.6	52.6	98	52.0	1	3	270	0.00	29.845 
05:10	52.6	52.6	52.6	98	52.0	1	4	90	0.00	29.845 
05:15	52.6	52.6	52.6	98	52.0	1	4	292	0.00	29.845 
05:20	52.6	52.6	52.6	98	52.0	0	6	248	0.00	29.845 
05:25	52.6	52.6	52.6	98	52.0	1	3	248	0.00	29.845 
05:30	52.6	52.6	52.6	98	52.0	1	4	248	0.00	29.834 
05:35	52.6	52.6	52.6	98	52.0	1	5	270	0.00	29.834 
05:40	52.5	52.5	52.5	98	52.0	1	3	248	0.00	29.834 
05:45	52.5	52.5	52.5	98	52.0	1	5	248	0.00	29.829 
05:50	52.5	52.5	52.5	98	52.0	1	3	45	0.00	29.829 
05:55	52.5	52.5	52.5	98	52.0	1	4	248	0.00	29.829 
06:00	52.5	52.5	52.5	98	52.0	1	3	68	0.00	29.821 
06:05	52.5	52.5	52.5	98	52.0	1	5	248	0.00	29.821 
06:10	52.5	52.5	52.5	98	52.0	1	4	248	0.00	29.821 
06:15	52.5	52.5	52.5	98	52.0	1	5	270	0.00	29.825 
06:20	52.6	52.6	52.6	98	52.0	1	4	225	0.00	29.825 
06:25	52.5	52.5	52.5	98	52.0	1	5	315	0.00	29.825 
06:30	52.5	52.5	52.5	98	52.0	1	5	248	0.00	29.822 
06:35	52.5	52.5	52.5	98	52.0	1	6	248	0.00	29.822 
06:40	52.6	52.6	52.6	98	52.0	1	6	225	0.00	29.822 
06:45	52.6	52.6	52.6	98	52.0	1	5	248	0.00	29.816 
06:50	52.6	52.6	52.6	98	52.0	1	5	248	0.00	29.816 
06:55	52.8	52.8	52.8	98	52.2	2	5	248	0.00	29.816 
07:00	52.8	52.8	52.8	98	52.2	1	5	248	0.00	29.819 
07:05	52.9	52.9	52.9	98	52.3	2	6	248	0.00	29.819 
07:10	52.9	52.9	52.9	98	52.3	2	5	248	0.00	29.819 
07:15	53.1	53.1	53.1	98	52.5	2	7	248	0.00	29.814 
07:20	53.1	53.1	53.1	97	52.3	2	5	248	0.00	29.814 
07:25	53.1	53.1	53.1	97	52.3	2	12	248	0.00	29.814 
07:30	53.2	53.2	53.2	97	52.4	3	7	248	0.00	29.816 
07:35	53.3	53.3	53.3	97	52.5	2	6	248	0.00	29.816 
07:40	53.5	53.5	53.5	97	52.7	2	6	248	0.00	29.816 
07:45	53.5	53.5	53.5	97	52.7	2	5	248	0.00	29.810 
07:50	53.6	53.6	53.6	97	52.8	2	7	248	0.00	29.810 
07:55	53.8	53.8	53.8	97	53.0	2	5	248	0.00	29.810 
08:00	53.8	53.8	53.8	97	53.0	1	5	248	0.00	29.814 
08:05	53.9	53.9	53.9	97	53.1	3	8	248	0.00	29.814 
08:10	54.1	54.1	54.1	97	53.3	3	10	248	0.00	29.814 
08:15	54.1	54.1	54.1	97	53.3	2	6	248	0.00	29.816 
08:20	54.2	54.2	54.2	97	53.4	2	6	248	0.00	29.816 
08:25	54.4	54.4	54.4	97	53.6	2	5	248	0.00	29.816 
08:30	54.4	54.4	54.4	97	53.6	3	10	248	0.00	29.829 
08:35	54.5	54.5	54.5	97	53.7	1	7	248	0.00	29.829 
08:40	54.5	54.5	54.5	97	53.7	3	10	248	0.00	29.829 
08:45	54.5	54.5	54.5	97	53.7	1	5	248	0.00	29.816 
08:50	54.5	54.5	54.5	97	53.7	2	6	248	0.00	29.816 
08:55	54.7	54.7	54.7	97	53.9	2	5	248	0.00	29.816 
09:00	54.7	54.7	54.7	97	53.9	2	10	248	0.00	29.817 
09:05	54.7	54.7	54.7	97	53.9	2	7	248	0.00	29.817 
09:10	54.7	54.7	54.7	96	53.6	1	5	248	0.00	29.817 
09:15	54.7	54.7	54.7	96	53.6	2	6	248	0.00	29.818 
09:20	54.7	54.7	54.7	96	53.6	1	5	248	0.00	29.818 
09:25	54.7	54.7	54.7	96	53.6	2	6	248	0.00	29.818 
09:30	54.8	54.8	54.8	96	53.7	2	5	248	0.00	29.813 
09:35	54.8	54.8	54.8	96	53.7	2	6	248	0.00	29.813 
09:40	54.8	54.8	54.8	96	53.7	2	5	248	0.00	29.813 
09:45	54.8	54.8	54.8	96	53.7	2	6	248	0.00	29.815 
09:50	55.0	55.0	55.0	96	53.9	3	9	248	0.00	29.815 
09:55	55.1	55.1	55.1	96	54.0	3	8	248	0.00	29.815 
10:00	55.1	55.1	55.1	96	54.0	1	5	248	0.00	29.811 
10:05	55.1	55.1	55.1	96	54.0	1	4	248	0.00	29.811 
10:10	55.1	55.1	55.1	96	54.0	1	6	248	0.00	29.811 
10:15	55.1	55.1	55.1	96	54.0	2	5	248	0.00	29.808 
10:20	55.3	55.3	55.3	96	54.2	1	4	248	0.00	29.808 
10:25	55.3	55.3	55.3	96	54.2	1	4	248	0.00	29.808 
10:30	55.3	55.3	55.3	96	54.2	2	7	248	0.00	29.811 
10:35	55.4	55.4	55.4	96	54.3	3	8	248	0.00	29.811 
10:40	55.4	55.4	55.4	96	54.3	2	6	248	0.00	29.811 
10:45	55.6	55.6	55.6	95	54.2	2	6	248	0.00	29.805 
10:50	55.6	55.6	55.6	95	54.2	1	7	248	0.00	29.805 
10:55	55.6	55.6	55.6	95	54.2	1	4	248	0.00	29.805 
11:00	55.7	55.7	55.7	95	54.3	3	6	248	0.00	29.813 
11:05	55.7	55.7	55.7	95	54.3	2	8	248	0.00	29.813 
11:10	55.7	55.7	55.7	95	54.3	2	6	248	0.00	29.813 
11:15	55.9	55.9	55.9	95	54.5	3	9	248	0.00	29.815 
11:20	55.9	55.9	55.9	95	54.5	2	6	248	0.00	29.815 
11:25	55.9	55.9	55.9	94	54.2	2	5	248	0.00	29.815 
11:30	55.9	55.9	55.9	94	54.2	2	5	248	0.00	29.813 
11:35	56.0	56.0	56.0	94	54.3	2	6	270	0.00	29.813 
11:40	56.0	56.0	56.0	94	54.3	2	4	248	0.00	29.813 
11:45	56.2	56.2	56.2	94	54.5	1	6	248	0.00	29.800 
11:50	56.3	56.3	56.3	94	54.6	1	5	248	0.00	29.800 
11:55	56.5	56.5	56.5	93	54.5	1	4	248	0.00	29.800 
12:00	56.5	56.5	56.5	93	54.5	1	4	248	0.00	29.793 
12:05	56.6	56.6	56.6	93	54.6	1	5	225	0.00	29.793 
12:10	56.6	56.6	56.6	93	54.6	1	4	248	0.00	29.793 
12:15	56.7	56.7	56.7	92	54.4	2	7	248	0.00	29.783 
12:20	56.9	56.9	56.9	92	54.6	1	4	225	0.00	29.783 
12:25	57.0	57.0	57.0	92	54.7	0	3	248	0.00	29.783 
12:30	57.0	57.0	57.0	92	54.7	1	5	248	0.00	29.782 
12:35	57.2	57.2	57.2	91	54.6	1	6	248	0.00	29.782 
12:40	57.3	57.3	57.3	91	54.7	2	4	248	0.00	29.782 
12:45	57.5	57.5	57.5	91	54.9	2	5	248	0.00	29.768 
12:50	57.6	57.6	57.6	91	55.0	1	3	292	0.00	29.768 
12:55	58.0	58.0	58.0	90	55.1	2	5	248	0.00	29.768 
13:00	58.0	58.0	58.0	90	55.1	2	6	248	0.00	29.764 
13:05	58.1	58.1	58.1	89	54.9	1	6	248	0.00	29.764 
13:10	58.1	58.1	58.1	89	54.9	1	4	248	0.00	29.764 
13:15	58.3	58.3	58.3	88	54.8	1	4	248	0.00	29.757 
13:20	58.3	58.3	58.3	88	54.8	1	5	248	0.00	29.757 
13:25	58.4	58.4	58.4	88	54.9	2	7	248	0.00	29.757 
13:30	58.4	58.4	58.4	88	54.9	1	3	90	0.00	29.746 
13:35	58.6	58.6	58.6	87	54.7	2	5	248	0.00	29.746 
13:40	58.7	58.7	58.7	87	54.8	1	4	202	0.00	29.746 
13:45	58.7	58.7	58.7	87	54.8	1	3	248	0.00	29.735 
13:50	58.7	58.7	58.7	86	54.5	2	7	248	0.00	29.735 
13:55	58.6	58.6	58.6	87	54.7	2	9	68	0.01	29.735 
14:00	58.3	58.3	58.3	88	54.8	2	5	248	0.00	29.734 
14:05	58.0	58.0	58.0	89	54.8	2	6	270	0.06	29.734 
14:10	57.6	57.6	57.6	90	54.7	1	4	225	0.00	29.734 
14:15	57.5	57.5	57.5	91	54.9	1	5	248	0.01	29.722 
14:20	57.3	57.3	57.3	91	54.7	0	1	45	0.00	29.722 
14:25	57.2	57.2	57.2	92	54.9	1	5	45	0.00	29.722 
14:30	57.5	57.5	57.5	92	55.2	1	3	338	0.00	29.717 
14:35	57.6	57.6	57.6	92	55.3	1	5	248	0.00	29.717 
14:40	57.6	57.6	57.6	93	55.6	2	10	90	0.00	29.717 
14:45	58.0	58.0	58.0	93	56.0	2	5	248	0.00	29.713 
14:50	58.0	58.0	58.0	92	55.7	1	4	248	0.00	29.713 
14:55	58.1	58.1	58.1	92	55.8	1	7	248	0.00	29.713 
15:00	58.1	58.1	58.1	92	55.8	2	4	248	0.00	29.709 
15:05	58.1	58.1	58.1	92	55.8	2	5	90	0.00	29.709 
15:10	58.1	58.1	58.1	92	55.8	2	5	248	0.00	29.709 
15:15	58.3	58.3	58.3	92	56.0	2	7	68	0.00	29.699 
15:20	58.3	58.3	58.3	91	55.7	2	5	90	0.00	29.699 
15:25	58.3	58.3	58.3	91	55.7	2	11	248	0.00	29.699 
15:30	58.3	58.3	58.3	90	55.4	3	10	248	0.00	29.699 
15:35	58.3	58.3	58.3	90	55.4	2	8	90	0.00	29.699 
15:40	58.3	58.3	58.3	90	55.4	2	5	225	0.00	29.699 
15:45	58.1	58.1	58.1	90	55.2	2	6	338	0.00	29.699 
15:50	58.1	58.1	58.1	90	55.2	2	7	248	0.00	29.699 
15:55	58.1	58.1	58.1	90	55.2	2	7	68	0.00	29.699 
16:00	58.0	58.0	58.0	89	54.8	1	5	248	0.00	29.699 
16:05	58.0	58.0	58.0	90	55.1	2	9	248	0.00	29.699 
16:10	57.8	57.8	57.8	89	54.6	2	5	315	0.00	29.699 
16:15	57.8	57.8	57.8	89	54.6	2	10	248	0.00	29.705 
16:20	57.6	57.6	57.6	89	54.4	2	11	248	0.00	29.705 
16:25	57.6	57.6	57.6	89	54.4	1	5	248	0.00	29.705 
16:30	57.6	57.6	57.6	89	54.4	2	6	270	0.00	29.691 
16:35	57.6	57.6	57.6	89	54.4	2	5	90	0.00	29.691 
16:40	57.5	57.5	57.5	89	54.3	2	6	68	0.00	29.691 
16:45	57.5	57.5	57.5	88	54.0	2	7	68	0.00	29.682 
16:50	57.6	57.6	57.6	88	54.1	2	7	45	0.00	29.682 
16:55	57.6	57.6	57.6	88	54.1	3	10	90	0.00	29.682 
17:00	57.8	57.8	57.8	87	54.0	3	9	90	0.00	29.680 
17:05	57.8	57.8	57.8	87	54.0	2	5	112	0.00	29.680 
17:10	58.0	58.0	58.0	86	53.8	5	10	90	0.00	29.680 
17:15	58.0	58.0	58.0	86	53.8	3	7	90	0.00	29.677 
17:20	58.0	58.0	58.0	86	53.8	2	6	90	0.00	29.677 
17:25	57.8	57.8	57.8	86	53.6	4	10	90	0.00	29.677 
17:30	58.0	58.0	58.0	86	53.8	5	11	90	0.00	29.670 
17:35	58.0	58.0	58.0	85	53.5	2	7	90	0.00	29.670 
17:40	58.0	58.0	58.0	85	53.5	2	7	112	0.00	29.670 
17:45	58.0	58.0	58.0	85	53.5	2	5	68	0.00	29.678 
17:50	58.0	58.0	58.0	85	53.5	1	4	90	0.00	29.678 
17:55	57.8	57.8	57.8	86	53.6	1	3	90	0.00	29.678 
18:00	57.8	57.8	57.8	86	53.6	1	3	45	0.00	29.671 
18:05	58.0	58.0	58.0	85	53.5	3	9	90	0.00	29.671 
18:10	58.0	58.0	58.0	85	53.5	2	6	90	0.00	29.671 
18:15	58.0	58.0	58.0	85	53.5	2	4	90	0.00	29.661 
18:20	58.0	58.0	58.0	85	53.5	2	5	90	0.00	29.661 
18:25	58.0	58.0	58.0	85	53.5	1	4	68	0.00	29.661 
18:30	58.1	58.1	58.1	85	53.6	3	10	90	0.00	29.649 
18:35	58.1	58.1	58.1	84	53.3	3	8	90	0.00	29.649 
18:40	58.1	58.1	58.1	84	53.3	1	7	90	0.00	29.649 
18:45	58.1	58.1	58.1	84	53.3	1	6	90	0.00	29.651 
18:50	58.1	58.1	58.1	85	53.6	2	7	0	0.00	29.651 
18:55	58.3	58.3	58.3	84	53.5	2	9	90	0.00	29.651 
19:00	58.3	58.3	58.3	84	53.5	2	4	270	0.00	29.650 
19:05	58.3	58.3	58.3	84	53.5	1	4	248	0.00	29.650 
19:10	58.3	58.3	58.3	84	53.5	3	9	90	0.00	29.650 
19:15	58.3	58.3	58.3	84	53.5	3	5	90	0.00	29.632 
19:20	58.3	58.3	58.3	84	53.5	3	6	68	0.00	29.632 
19:25	58.3	58.3	58.3	84	53.5	2	6	68	0.00	29.632 
19:30	58.4	58.4	58.4	84	53.6	3	9	90	0.00	29.628 
19:35	58.4	58.4	58.4	84	53.6	3	7	68	0.00	29.628 
19:40	58.3	58.3	58.3	84	53.5	2	7	90	0.00	29.628 
19:45	58.3	58.3	58.3	85	53.8	2	6	68	0.00	29.618 
19:50	58.3	58.3	58.3	85	53.8	3	9	90	0.00	29.618 
19:55	58.3	58.3	58.3	85	53.8	2	6	45	0.00	29.618 
20:00	58.3	58.3	58.3	85	53.8	3	9	45	0.00	29.611 
20:05	58.1	58.1	58.1	85	53.6	2	4	112	0.00	29.611 
20:10	58.1	58.1	58.1	85	53.6	3	8	90	0.00	29.611 
20:15	58.1	58.1	58.1	85	53.6	2	7	90	0.00	29.593 
20:20	58.1	58.1	58.1	85	53.6	3	7	90	0.00	29.593 
20:25	58.1	58.1	58.1	85	53.6	3	11	90	0.00	29.593 
20:30	58.3	58.3	58.3	85	53.8	3	11	90	0.00	29.581 
20:35	58.4	58.4	58.4	85	53.9	3	9	112	0.00	29.581 
20:40	58.4	58.4	58.4	85	53.9	4	12	90	0.00	29.581 
20:45	58.6	58.6	58.6	85	54.1	3	9	90	0.00	29.567 
20:50	58.7	58.7	58.7	85	54.2	4	10	90	0.00	29.567 
20:55	58.9	58.9	58.9	85	54.4	4	14	90	0.00	29.567 
21:00	59.0	59.0	59.0	85	54.5	3	8	90	0.00	29.560 
21:05	59.2	59.2	59.2	84	54.4	2	9	68	0.00	29.560 
21:10	59.2	59.2	59.2	84	54.4	3	6	90	0.00	29.560 
21:15	59.2	59.2	59.2	84	54.4	4	11	90	0.00	29.539 
21:20	59.3	59.3	59.3	84	54.5	4	12	68	0.00	29.539 
21:25	59.2	59.2	59.2	84	54.4	3	9	90	0.00	29.539 
21:30	59.3	59.3	59.3	84	54.5	3	9	90	0.00	29.536 
21:35	59.3	59.3	59.3	84	54.5	3	11	112	0.00	29.536 
21:40	59.3	59.3	59.3	84	54.5	3	11	112	0.00	29.536 
21:45	59.5	59.5	59.5	84	54.7	4	10	90	0.00	29.521 
21:50	59.5	59.5	59.5	84	54.7	3	13	112	0.00	29.521 
21:55	59.5	59.5	59.5	84	54.7	3	7	112	0.00	29.521 
22:00	59.5	59.5	59.5	84	54.7	4	11	90	0.00	29.514 
22:05	59.5	59.5	59.5	84	54.7	3	9	90	0.00	29.514 
22:10	59.6	59.6	59.6	84	54.8	4	9	68	0.00	29.514 
22:15	59.6	59.6	59.6	84	54.8	4	10	68	0.00	29.500 
22:20	59.6	59.6	59.6	84	54.8	4	9	90	0.00	29.500 
22:25	59.8	59.8	59.8	84	55.0	3	11	68	0.00	29.500 
22:30	59.8	59.8	59.8	84	55.0	4	14	90	0.00	29.479 
22:35	59.9	59.9	59.9	84	55.0	3	7	45	0.00	29.479 
22:40	59.9	59.9	59.9	84	55.0	4	11	90	0.00	29.479 
22:45	60.1	60.1	60.1	84	55.2	5	12	90	0.00	29.468 
22:50	60.2	60.2	60.2	83	55.0	4	10	90	0.00	29.468 
22:55	60.4	60.4	60.4	83	55.2	4	9	90	0.00	29.468 
23:00	60.5	60.5	60.5	84	55.6	4	10	90	0.00	29.455 
23:05	60.5	60.5	60.5	84	55.6	5	11	90	0.00	29.455 
23:10	60.5	60.5	60.5	83	55.3	4	10	90	0.00	29.455 
23:15	60.5	60.5	60.5	83	55.3	3	10	90	0.00	29.436 
23:20	60.7	60.7	60.7	83	55.5	5	11	90	0.00	29.436 
23:25	60.9	60.9	60.9	83	55.7	5	12	90	0.00	29.436 
23:30	61.0	61.0	61.0	82	55.5	4	16	90	0.00	29.419 
23:35	61.0	61.0	61.0	82	55.5	4	10	90	0.00	29.419 
23:40	60.9	60.9	60.9	82	55.4	3	7	68	0.00	29.419 
23:45	61.0	61.0	61.0	82	55.5	4	11	90	0.00	29.414 
23:50	61.0	61.0	61.0	82	55.5	3	10	90	0.00	29.414 
23:55	61.0	61.0	61.0	82	55.5	3	12	90	0.00	29.414 

CoCoRaHS
IN-AL-39
A2 Web Hosting
Creative Commons License
GoDaddy
search engine by freefind advanced

loaded 2018-11-12 19:39:34 • last modified 2010-11-18 10:43:29
Privacy PolicyDisclaimer
• wx.awcolley.com is powered by PmWiki v.2002016 •
• all content (unless otherwise noted) © 2018 A W Colley